Time;durP1;ratioP1;P1;durP2;ratioP2;P2;SDS_P1;SDS_P2;PMS_P1;PMS_P2;Temp;Humidity;BMP_temperature;BMP_pressure;BME280_temperature;BME280_humidity;BME280_pressure;Samples;Min_cycle;Max_cycle;Signal;HPM_P1;HPM_P2
2022/06/29 00:00:23;;;;;;;8.47;3.23;;;15.00;99.90;;;;;;5083915;28;20659;-64
2022/06/29 00:02:51;;;;;;;6.20;3.63;;;15.00;99.90;;;;;;5088389;28;20180;-65
2022/06/29 00:05:21;;;;;;;5.20;3.10;;;15.30;99.90;;;;;;5092285;28;20176;-66
2022/06/29 00:07:49;;;;;;;5.83;3.17;;;15.30;99.90;;;;;;5092050;28;20264;-66
2022/06/29 00:10:17;;;;;;;5.50;3.37;;;15.30;99.90;;;;;;5091937;28;20704;-66
2022/06/29 00:12:47;;;;;;;6.40;3.33;;;15.40;99.90;;;;;;5091557;28;20679;-66
2022/06/29 00:15:16;;;;;;;12.60;3.97;;;15.30;99.90;;;;;;5092151;28;20179;-65
2022/06/29 00:17:44;;;;;;;6.70;3.70;;;15.20;99.90;;;;;;5091807;28;20675;-66
2022/06/29 00:20:13;;;;;;;7.97;3.63;;;15.40;99.90;;;;;;5091721;28;20657;-65
2022/06/29 00:22:41;;;;;;;11.57;3.60;;;15.90;99.90;;;;;;5091632;28;20183;-65
2022/06/29 00:25:11;;;;;;;7.13;3.37;;;16.20;99.90;;;;;;5091025;28;20670;-64
2022/06/29 00:27:39;;;;;;;11.43;3.87;;;16.60;99.90;;;;;;5091524;28;20237;-64
2022/06/29 00:30:08;;;;;;;9.77;3.87;;;16.40;99.90;;;;;;5091934;28;20683;-64
2022/06/29 00:32:36;;;;;;;13.30;4.50;;;16.30;99.90;;;;;;5071731;28;20183;-64
2022/06/29 00:35:04;;;;;;;13.43;4.57;;;16.60;99.90;;;;;;5071613;28;20677;-64
2022/06/29 00:37:32;;;;;;;10.40;5.20;;;17.20;99.90;;;;;;5071579;28;20187;-64
2022/06/29 00:40:00;;;;;;;13.37;5.27;;;17.30;99.90;;;;;;5071573;28;20706;-64
2022/06/29 00:42:28;;;;;;;15.40;5.90;;;17.40;99.90;;;;;;5072666;28;20807;-64
2022/06/29 00:44:55;;;;;;;14.77;5.40;;;17.20;99.90;;;;;;5091629;28;20194;-65
2022/06/29 00:47:23;;;;;;;10.40;5.57;;;17.50;99.90;;;;;;5091772;28;20319;-64
2022/06/29 00:49:51;;;;;;;8.83;5.20;;;17.50;99.90;;;;;;5091777;28;20207;-64
2022/06/29 00:52:24;;;;;;;11.03;4.90;;;17.50;99.90;;;;;;5091628;28;20175;-64
2022/06/29 00:55:22;;;;;;;12.73;4.60;;;17.50;99.90;;;;;;5095464;28;20179;-64
2022/06/29 00:57:51;;;;;;;6.80;3.90;;;17.70;99.90;;;;;;5095703;28;20186;-64
2022/06/29 01:00:19;;;;;;;7.93;4.40;;;17.80;99.90;;;;;;5095486;28;20175;-64
2022/06/29 01:02:47;;;;;;;8.93;3.90;;;18.20;99.90;;;;;;5095537;28;20655;-64
2022/06/29 01:05:15;;;;;;;8.33;3.97;;;18.50;99.90;;;;;;5095617;28;20183;-64
2022/06/29 01:07:44;;;;;;;14.70;4.07;;;18.50;99.90;;;;;;5089337;28;20220;-65
2022/06/29 01:10:11;;;;;;;9.10;4.10;;;18.50;99.90;;;;;;5084194;28;20190;-64
2022/06/29 01:12:40;;;;;;;11.70;3.70;;;18.70;99.90;;;;;;5095141;28;20187;-65
2022/06/29 01:15:09;;;;;;;10.90;3.40;;;19.20;99.90;;;;;;5095119;28;20200;-65
2022/06/29 01:17:37;;;;;;;7.83;3.20;;;19.60;99.90;;;;;;5113246;28;20227;-67
2022/06/29 01:20:05;;;;;;;7.37;2.80;;;19.30;99.90;;;;;;5107685;28;20177;-66
2022/06/29 01:22:33;;;;;;;8.37;2.63;;;18.90;99.90;;;;;;5112518;28;20195;-66
2022/06/29 01:25:01;;;;;;;5.87;2.43;;;18.50;99.90;;;;;;5089986;28;20198;-65
2022/06/29 01:27:29;;;;;;;8.77;2.67;;;18.60;99.90;;;;;;5094920;28;20285;-66
2022/06/29 01:29:57;;;;;;;6.50;1.90;;;18.60;99.90;;;;;;5094978;28;20205;-65
2022/06/29 01:32:25;;;;;;;7.87;2.00;;;18.50;99.90;;;;;;5094938;28;20175;-65
2022/06/29 01:34:52;;;;;;;6.77;2.00;;;19.40;99.90;;;;;;5089136;28;20171;-64
2022/06/29 01:37:20;;;;;;;3.40;1.97;;;19.60;99.90;;;;;;5091338;28;20179;-65
2022/06/29 01:39:48;;;;;;;9.57;2.00;;;19.40;99.90;;;;;;5076557;28;20649;-65
2022/06/29 01:42:15;;;;;;;6.37;1.70;;;19.10;99.90;;;;;;5076694;28;20244;-64
2022/06/29 01:44:43;;;;;;;3.20;1.83;;;19.40;99.90;;;;;;5081646;28;20270;-66
2022/06/29 01:47:11;;;;;;;4.07;1.30;;;19.50;99.90;;;;;;5079264;28;20222;-65
2022/06/29 01:49:38;;;;;;;3.53;1.57;;;19.50;99.90;;;;;;5076272;28;20225;-66
2022/06/29 01:52:06;;;;;;;6.13;1.40;;;19.20;99.90;;;;;;5093995;28;20717;-66
2022/06/29 01:54:34;;;;;;;4.77;1.00;;;20.00;99.90;;;;;;5094339;28;20216;-66
2022/06/29 01:57:02;;;;;;;4.10;1.03;;;19.80;99.90;;;;;;5094379;28;20233;-66
2022/06/29 01:59:30;;;;;;;6.87;1.23;;;19.50;99.90;;;;;;5094190;28;20716;-65
2022/06/29 02:01:58;;;;;;;2.93;1.00;;;19.50;99.90;;;;;;5076818;28;20573;-66
2022/06/29 02:04:25;;;;;;;6.80;1.57;;;19.50;99.90;;;;;;5073690;28;20642;-65
2022/06/29 02:06:53;;;;;;;8.93;1.63;;;18.80;99.90;;;;;;5073965;28;20307;-65
2022/06/29 02:09:21;;;;;;;2.57;1.03;;;19.00;99.90;;;;;;5084040;28;20187;-65
2022/06/29 02:11:49;;;;;;;8.63;1.70;;;19.00;99.90;;;;;;5080885;28;20549;-64
2022/06/29 02:14:16;;;;;;;3.27;1.30;;;18.90;99.90;;;;;;5075039;28;20183;-65
2022/06/29 02:16:44;;;;;;;5.77;1.37;;;18.80;99.90;;;;;;5093775;28;20680;-64
2022/06/29 02:19:12;;;;;;;2.73;1.03;;;18.80;99.90;;;;;;5094206;28;20182;-65
2022/06/29 02:21:39;;;;;;;4.67;1.10;;;19.60;99.90;;;;;;5093755;28;20231;-65
2022/06/29 02:24:07;;;;;;;1.63;0.80;;;20.40;99.90;;;;;;5094114;28;20217;-66
2022/06/29 02:26:35;;;;;;;5.60;1.00;;;20.30;99.90;;;;;;5093891;28;20232;-66
2022/06/29 02:29:03;;;;;;;4.17;1.57;;;20.40;99.90;;;;;;5093603;28;20690;-66
2022/06/29 02:37:02;;;;;;;5.50;0.90;;;19.70;99.90;;;;;;5073473;28;20261;-66
2022/06/29 02:39:30;;;;;;;3.90;0.90;;;19.10;99.90;;;;;;5073649;28;20183;-66
2022/06/29 02:41:57;;;;;;;3.20;1.20;;;18.60;99.90;;;;;;5073495;28;20187;-66
2022/06/29 02:44:25;;;;;;;9.27;1.67;;;18.70;99.90;;;;;;5077288;28;20217;-66
2022/06/29 02:46:53;;;;;;;7.77;1.40;;;19.00;99.90;;;;;;5088076;28;20211;-66
2022/06/29 02:49:21;;;;;;;4.37;1.50;;;18.60;99.90;;;;;;5086598;28;20171;-67
2022/06/29 02:51:48;;;;;;;5.13;1.50;;;18.80;99.90;;;;;;5093190;28;20183;-67
2022/06/29 02:54:16;;;;;;;3.10;1.57;;;19.30;99.90;;;;;;5092888;28;20716;-67
2022/06/29 02:56:44;;;;;;;5.60;1.57;;;19.30;99.90;;;;;;5093134;28;20187;-67
2022/06/29 02:59:12;;;;;;;5.17;1.43;;;19.40;99.90;;;;;;5093190;28;20183;-67
2022/06/29 03:01:39;;;;;;;3.17;1.50;;;18.90;99.90;;;;;;5092752;28;20191;-67
2022/06/29 03:04:07;;;;;;;7.70;1.70;;;18.80;99.90;;;;;;5093373;28;20175;-66
2022/06/29 03:06:35;;;;;;;3.03;1.47;;;18.80;99.90;;;;;;5092538;28;20227;-66
2022/06/29 03:09:03;;;;;;;8.97;1.70;;;18.50;99.90;;;;;;5092398;28;20639;-66
2022/06/29 03:11:31;;;;;;;5.40;1.33;;;18.60;99.90;;;;;;5072841;28;20176;-67
2022/06/29 03:13:59;;;;;;;3.93;1.40;;;18.60;99.90;;;;;;5082003;28;20180;-67
2022/06/29 03:16:27;;;;;;;3.73;1.30;;;18.60;99.90;;;;;;5090789;28;20191;-67
2022/06/29 03:18:55;;;;;;;3.57;1.30;;;18.70;99.90;;;;;;5092251;28;20218;-67
2022/06/29 03:21:22;;;;;;;2.90;1.10;;;18.80;99.90;;;;;;5093256;28;20655;-68
2022/06/29 03:23:50;;;;;;;2.77;1.47;;;19.20;99.90;;;;;;5093549;28;20225;-67
2022/06/29 03:26:18;;;;;;;5.67;1.50;;;19.10;99.90;;;;;;5091331;28;20271;-69
2022/06/29 03:28:47;;;;;;;2.73;1.13;;;18.50;99.90;;;;;;5093824;28;20671;-68
2022/06/29 03:31:15;;;;;;;4.50;1.37;;;18.30;99.90;;;;;;5094052;28;20171;-69
2022/06/29 03:33:43;;;;;;;3.43;1.43;;;18.10;99.90;;;;;;5094201;28;20171;-69
2022/06/29 03:36:10;;;;;;;3.93;1.70;;;18.00;99.90;;;;;;5094324;28;20228;-69
2022/06/29 03:38:38;;;;;;;4.60;1.00;;;18.10;99.90;;;;;;5093616;28;20254;-69
2022/06/29 03:41:06;;;;;;;3.77;1.20;;;18.00;99.90;;;;;;5093833;28;20190;-69
2022/06/29 03:43:34;;;;;;;3.33;1.10;;;18.00;99.90;;;;;;5093618;28;20210;-69
2022/06/29 03:46:01;;;;;;;3.30;0.97;;;18.00;99.90;;;;;;5093464;28;20176;-69
2022/06/29 03:48:29;;;;;;;2.67;1.30;;;17.70;99.90;;;;;;5093631;28;20180;-68
2022/06/29 03:50:57;;;;;;;3.90;1.23;;;17.80;99.90;;;;;;5093592;28;20190;-69
2022/06/29 03:53:25;;;;;;;2.20;0.80;;;18.20;99.90;;;;;;5093434;28;20175;-68
2022/06/29 03:55:52;;;;;;;4.73;0.77;;;18.60;99.90;;;;;;5093535;28;20211;-68
2022/06/29 03:58:20;;;;;;;6.47;0.90;;;19.00;99.90;;;;;;5093490;28;20175;-67
2022/06/29 04:00:48;;;;;;;4.90;1.97;;;19.00;99.90;;;;;;5093532;28;20174;-69
2022/06/29 04:03:15;;;;;;;6.33;1.07;;;18.60;99.90;;;;;;5093558;28;20175;-67
2022/06/29 04:05:43;;;;;;;4.00;1.13;;;18.30;99.90;;;;;;5093412;28;20278;-67
2022/06/29 04:08:11;;;;;;;7.13;1.00;;;18.50;99.90;;;;;;5075187;28;20651;-67
2022/06/29 04:10:39;;;;;;;4.40;1.23;;;18.50;99.90;;;;;;5093059;28;20201;-68
2022/06/29 04:13:06;;;;;;;4.30;0.80;;;18.40;99.90;;;;;;5093406;28;20182;-68
2022/06/29 04:15:35;;;;;;;3.10;0.80;;;18.50;99.90;;;;;;5093347;28;20191;-69
2022/06/29 04:18:03;;;;;;;5.77;1.33;;;18.70;99.90;;;;;;5093078;28;20584;-67
2022/06/29 04:23:16;;;;;;;4.77;1.37;;;18.80;99.90;;;;;;5093149;28;20182;-70
2022/06/29 04:25:44;;;;;;;2.93;0.80;;;18.80;99.90;;;;;;5093031;28;20175;-67
2022/06/29 04:28:12;;;;;;;4.63;0.70;;;18.60;99.90;;;;;;5092758;28;20317;-69
2022/06/29 04:30:40;;;;;;;2.03;1.00;;;18.60;99.90;;;;;;5092982;28;20168;-67
2022/06/29 04:33:07;;;;;;;4.90;1.20;;;18.80;99.90;;;;;;5093020;28;20231;-68
2022/06/29 04:35:35;;;;;;;10.53;0.90;;;18.80;99.90;;;;;;5092972;28;20207;-67
2022/06/29 04:38:03;;;;;;;2.17;0.90;;;18.30;99.90;;;;;;5093041;28;20198;-69
2022/06/29 04:40:31;;;;;;;2.50;1.00;;;18.40;99.90;;;;;;5092844;28;20174;-67
2022/06/29 04:42:59;;;;;;;7.17;1.10;;;18.70;99.90;;;;;;5093182;28;20212;-68
2022/06/29 04:48:12;;;;;;;1.53;0.70;;;18.60;99.90;;;;;;5092991;28;20298;-69
2022/06/29 04:50:40;;;;;;;2.57;0.90;;;18.70;99.90;;;;;;5092796;28;20172;-69
2022/06/29 04:53:07;;;;;;;5.43;1.20;;;18.60;99.90;;;;;;5092780;28;20175;-68
2022/06/29 04:55:35;;;;;;;2.03;0.80;;;18.40;99.90;;;;;;5092874;28;20183;-69
2022/06/29 04:58:03;;;;;;;2.73;0.90;;;18.20;99.90;;;;;;5092674;28;20172;-70
2022/06/29 05:00:31;;;;;;;2.47;0.90;;;17.90;99.90;;;;;;5092863;28;20175;-69
2022/06/29 05:02:58;;;;;;;3.13;1.10;;;17.70;99.90;;;;;;5092956;28;20666;-70
2022/06/29 05:05:26;;;;;;;2.03;0.80;;;17.60;99.90;;;;;;5093017;28;20174;-69
2022/06/29 05:07:54;;;;;;;3.13;1.00;;;17.50;99.90;;;;;;5092685;28;20211;-69
2022/06/29 05:10:21;;;;;;;3.07;1.20;;;17.40;99.90;;;;;;5092914;28;20171;-69
2022/06/29 05:12:49;;;;;;;6.43;1.47;;;17.30;99.90;;;;;;5092607;28;20258;-69
2022/06/29 05:15:17;;;;;;;4.13;1.30;;;17.30;99.90;;;;;;5074514;28;20171;-69
2022/06/29 05:17:46;;;;;;;4.33;1.30;;;17.20;99.90;;;;;;5092437;28;20176;-68
2022/06/29 05:20:14;;;;;;;3.27;1.30;;;17.20;99.90;;;;;;5092704;28;20178;-68
2022/06/29 05:22:42;;;;;;;6.53;1.60;;;17.20;99.90;;;;;;5092461;28;20203;-68
2022/06/29 05:25:10;;;;;;;9.40;2.50;;;17.20;99.90;;;;;;5092584;28;20547;-66
2022/06/29 05:27:37;;;;;;;4.33;1.50;;;17.10;99.90;;;;;;5092256;28;20227;-69
2022/06/29 05:30:06;;;;;;;4.10;1.40;;;17.10;99.90;;;;;;5092566;28;20651;-69
2022/06/29 05:32:35;;;;;;;3.70;0.90;;;17.10;99.90;;;;;;5092300;28;20172;-69
2022/06/29 05:35:03;;;;;;;1.70;0.80;;;17.00;99.90;;;;;;5092604;28;20175;-69
2022/06/29 05:37:32;;;;;;;4.33;0.97;;;16.90;99.90;;;;;;5092260;28;20175;-69
2022/06/29 05:39:59;;;;;;;1.50;0.77;;;16.80;99.90;;;;;;5094639;28;20244;-67
2022/06/29 05:42:27;;;;;;;6.40;1.10;;;16.70;99.90;;;;;;5095904;28;20201;-68
2022/06/29 05:44:55;;;;;;;3.10;1.10;;;16.70;99.90;;;;;;5096124;28;20172;-69
2022/06/29 05:47:23;;;;;;;3.67;1.03;;;16.60;99.90;;;;;;5095987;28;20199;-70
2022/06/29 05:49:50;;;;;;;6.00;1.77;;;16.50;99.90;;;;;;5096087;28;20176;-70
2022/06/29 05:52:19;;;;;;;6.10;0.83;;;16.50;99.90;;;;;;5095777;28;20191;-69
2022/06/29 05:54:47;;;;;;;3.07;0.90;;;16.40;99.90;;;;;;5095669;28;20181;-69
2022/06/29 05:57:15;;;;;;;4.60;1.30;;;16.30;99.90;;;;;;5095739;28;20223;-69
2022/06/29 05:59:42;;;;;;;3.87;1.23;;;16.30;99.90;;;;;;5095837;28;20254;-69
2022/06/29 06:02:10;;;;;;;3.67;1.03;;;16.20;99.90;;;;;;5095808;28;20164;-69
2022/06/29 06:04:38;;;;;;;12.90;1.43;;;16.20;99.90;;;;;;5095567;28;20233;-67
2022/06/29 06:07:05;;;;;;;4.60;1.10;;;16.10;99.90;;;;;;5095370;28;20222;-68
2022/06/29 06:09:33;;;;;;;4.70;1.57;;;16.10;99.90;;;;;;5095501;28;20387;-67
2022/06/29 06:12:01;;;;;;;4.93;1.00;;;16.10;99.90;;;;;;5095491;28;20224;-69
2022/06/29 06:14:29;;;;;;;6.17;1.23;;;16.00;99.90;;;;;;5095530;28;20256;-68
2022/06/29 06:16:56;;;;;;;3.20;0.80;;;16.00;99.90;;;;;;5095267;28;20547;-69
2022/06/29 06:19:24;;;;;;;1.30;0.80;;;16.00;99.90;;;;;;5095385;28;20171;-68
2022/06/29 06:21:52;;;;;;;4.83;1.00;;;16.00;99.90;;;;;;5077232;28;20176;-69
2022/06/29 06:24:19;;;;;;;1.57;0.90;;;16.00;99.90;;;;;;5095147;28;20483;-69
2022/06/29 06:26:47;;;;;;;4.70;1.10;;;16.00;99.90;;;;;;5095010;28;20621;-69
2022/06/29 06:29:15;;;;;;;6.20;1.33;;;16.00;99.90;;;;;;5095087;28;20178;-70
2022/06/29 06:31:42;;;;;;;3.73;1.13;;;15.90;99.90;;;;;;5095188;28;20293;-70
2022/06/29 06:34:10;;;;;;;10.90;1.57;;;15.90;99.90;;;;;;5095084;28;20174;-68
2022/06/29 06:36:38;;;;;;;2.77;1.10;;;15.80;99.90;;;;;;5095242;28;20171;-68
2022/06/29 06:39:06;;;;;;;3.60;1.70;;;15.70;99.90;;;;;;5094982;28;20180;-69
2022/06/29 06:41:33;;;;;;;4.00;1.30;;;15.70;99.90;;;;;;5094967;28;20178;-68
2022/06/29 06:44:02;;;;;;;7.27;1.37;;;15.60;99.90;;;;;;5095168;28;20167;-68
2022/06/29 06:46:30;;;;;;;5.03;1.10;;;15.50;99.90;;;;;;5094732;28;20232;-68
2022/06/29 06:48:57;;;;;;;5.27;1.50;;;15.40;99.90;;;;;;5094757;28;20183;-68
2022/06/29 06:51:25;;;;;;;9.20;1.70;;;15.30;99.90;;;;;;5095060;28;20545;-70
2022/06/29 06:53:53;;;;;;;6.57;1.40;;;15.20;99.90;;;;;;5094803;28;20199;-70
2022/06/29 06:56:21;;;;;;;8.87;1.77;;;15.10;99.90;;;;;;5094811;28;20185;-69
2022/06/29 06:58:49;;;;;;;5.67;1.80;;;14.90;99.90;;;;;;5094436;28;20609;-68
2022/06/29 07:01:16;;;;;;;7.20;2.40;;;14.80;99.90;;;;;;5094541;28;20187;-67
2022/06/29 07:03:44;;;;;;;7.30;1.90;;;14.70;99.90;;;;;;5094432;28;20179;-69
2022/06/29 07:06:12;;;;;;;7.43;2.00;;;14.60;99.90;;;;;;5094738;28;20190;-68
2022/06/29 07:08:40;;;;;;;5.87;1.87;;;14.60;99.90;;;;;;5094499;28;20172;-69
2022/06/29 07:11:09;;;;;;;3.20;1.73;;;14.50;99.90;;;;;;5094117;28;20632;-68
2022/06/29 07:13:37;;;;;;;6.67;2.00;;;14.60;99.90;;;;;;5094312;28;20183;-69
2022/06/29 07:16:06;;;;;;;3.27;1.50;;;14.50;99.90;;;;;;5094237;28;20178;-69
2022/06/29 07:18:34;;;;;;;4.73;1.60;;;14.50;99.90;;;;;;5094256;28;20185;-69
2022/06/29 07:21:02;;;;;;;6.53;1.50;;;14.40;99.90;;;;;;5094152;28;20171;-68
2022/06/29 07:23:30;;;;;;;2.53;1.23;;;14.40;99.90;;;;;;5094501;28;20171;-69
2022/06/29 07:25:58;;;;;;;5.20;1.50;;;14.40;99.90;;;;;;5094266;28;20182;-69
2022/06/29 07:28:26;;;;;;;3.43;1.30;;;14.40;99.90;;;;;;5094499;28;20206;-69
2022/06/29 07:30:53;;;;;;;5.10;1.30;;;14.40;99.90;;;;;;5093971;28;20178;-69
2022/06/29 07:33:21;;;;;;;3.17;1.67;;;14.30;99.90;;;;;;5076041;28;20186;-69
2022/06/29 07:35:49;;;;;;;4.20;1.30;;;14.30;99.90;;;;;;5075746;28;20210;-69
2022/06/29 07:38:29;;;;;;;6.50;1.17;;;14.20;99.90;;;;;;5094066;28;20639;-69
2022/06/29 07:40:58;;;;;;;2.83;1.50;;;14.10;99.90;;;;;;5093858;28;20505;-69
2022/06/29 07:43:26;;;;;;;4.87;1.77;;;14.10;99.90;;;;;;5093742;28;20214;-69
2022/06/29 07:45:57;;;;;;;3.67;1.43;;;13.90;99.90;;;;;;5093736;28;20272;-69
2022/06/29 07:48:26;;;;;;;5.03;1.47;;;13.90;99.90;;;;;;5093918;28;20217;-70
2022/06/29 07:50:53;;;;;;;4.63;1.70;;;13.90;99.90;;;;;;5093798;28;20186;-69
2022/06/29 07:53:22;;;;;;;4.97;1.70;;;13.70;99.90;;;;;;5093841;28;20207;-69
2022/06/29 07:55:50;;;;;;;2.73;1.40;;;13.70;99.90;;;;;;5093814;28;20179;-69
2022/06/29 07:58:18;;;;;;;5.73;1.90;;;13.70;99.90;;;;;;5098979;28;20174;-69
2022/06/29 08:00:49;;;;;;;3.97;1.83;;;13.60;99.90;;;;;;5101209;28;20319;-67
2022/06/29 08:03:17;;;;;;;5.80;1.70;;;13.60;99.90;;;;;;5098090;28;20258;-69
2022/06/29 08:05:45;;;;;;;8.43;2.00;;;13.60;99.90;;;;;;5093597;28;20171;-69
2022/06/29 08:08:13;;;;;;;4.97;2.13;;;13.60;99.90;;;;;;5093421;28;20214;-69
2022/06/29 08:10:40;;;;;;;7.70;2.17;;;13.60;99.90;;;;;;5093611;28;20311;-68
2022/06/29 08:13:08;;;;;;;7.23;2.33;;;13.50;99.90;;;;;;5093382;28;20175;-69
2022/06/29 08:15:36;;;;;;;4.00;2.00;;;13.60;99.90;;;;;;5093585;28;20174;-69
2022/06/29 08:18:04;;;;;;;6.27;2.10;;;13.60;99.90;;;;;;5093188;28;20179;-69
2022/06/29 08:20:32;;;;;;;4.87;1.80;;;13.60;99.90;;;;;;5093394;28;20519;-68
2022/06/29 08:22:59;;;;;;;2.97;1.90;;;13.60;99.90;;;;;;5093224;28;20232;-68
2022/06/29 08:25:27;;;;;;;4.07;2.17;;;13.50;99.90;;;;;;5093375;28;20690;-69
2022/06/29 08:27:55;;;;;;;3.63;2.00;;;13.50;99.90;;;;;;5093063;28;20316;-68
2022/06/29 08:30:23;;;;;;;5.03;2.00;;;13.50;99.90;;;;;;5093242;28;20209;-69
2022/06/29 08:32:51;;;;;;;4.07;1.77;;;13.40;99.90;;;;;;5093073;28;20175;-69
2022/06/29 08:35:19;;;;;;;3.20;2.00;;;13.40;99.90;;;;;;5093087;28;20251;-68
2022/06/29 08:37:51;;;;;;;4.87;2.30;;;13.40;99.90;;;;;;5092837;28;20579;-69
2022/06/29 08:40:18;;;;;;;7.23;1.90;;;13.50;99.90;;;;;;5093251;28;20213;-69
2022/06/29 08:42:50;;;;;;;7.90;2.30;;;13.50;99.90;;;;;;5092773;28;20224;-69
2022/06/29 08:45:17;;;;;;;9.73;2.40;;;13.60;99.90;;;;;;5093142;28;20280;-69
2022/06/29 08:47:45;;;;;;;7.40;2.50;;;13.60;99.90;;;;;;5093001;28;20213;-69
2022/06/29 08:50:13;;;;;;;10.37;2.80;;;13.50;99.90;;;;;;5092990;28;20167;-69
2022/06/29 08:52:44;;;;;;;6.67;2.57;;;13.50;99.90;;;;;;5093058;28;20633;-69
2022/06/29 08:55:12;;;;;;;7.57;3.10;;;13.60;99.90;;;;;;5093180;28;20632;-69
2022/06/29 08:57:42;;;;;;;9.47;2.90;;;13.60;99.90;;;;;;5092902;28;20179;-69
2022/06/29 09:00:11;;;;;;;9.47;3.70;;;13.70;99.90;;;;;;5092875;28;20644;-69
2022/06/29 09:02:39;;;;;;;7.83;3.50;;;13.70;99.90;;;;;;5093008;28;20705;-69
2022/06/29 09:05:07;;;;;;;7.00;3.80;;;13.60;99.90;;;;;;5092995;28;20183;-69
2022/06/29 09:07:35;;;;;;;7.97;3.30;;;13.60;99.90;;;;;;5093127;28;20209;-68
2022/06/29 09:10:08;;;;;;;7.20;3.50;;;13.50;99.90;;;;;;5092994;28;20170;-69
2022/06/29 09:12:36;;;;;;;9.37;3.87;;;13.40;99.90;;;;;;5092862;28;20256;-69
2022/06/29 09:15:07;;;;;;;7.97;3.73;;;13.30;99.90;;;;;;5095454;28;20189;-69
2022/06/29 09:17:39;;;;;;;8.67;4.17;;;13.20;99.90;;;;;;5096939;28;20221;-68
2022/06/29 09:20:07;;;;;;;6.43;3.17;;;13.20;99.90;;;;;;5097072;28;20181;-68
2022/06/29 09:22:51;;;;;;;7.07;3.47;;;13.10;99.90;;;;;;5096844;28;20170;-69
2022/06/29 09:25:25;;;;;;;7.30;3.23;;;13.10;99.90;;;;;;5078495;28;20177;-68
2022/06/29 09:27:57;;;;;;;6.37;3.50;;;13.00;99.90;;;;;;5097169;28;20299;-69
2022/06/29 09:30:26;;;;;;;8.07;3.27;;;13.00;99.90;;;;;;5078410;28;20182;-68
2022/06/29 09:33:03;;;;;;;4.87;3.13;;;12.90;99.90;;;;;;5096536;28;20232;-69
2022/06/29 09:35:32;;;;;;;6.07;3.13;;;12.90;99.90;;;;;;5096522;28;20181;-69
2022/06/29 09:38:24;;;;;;;4.43;2.67;;;12.80;99.90;;;;;;5096417;28;20209;-69
2022/06/29 09:41:02;;;;;;;4.90;2.90;;;12.60;99.90;;;;;;5096396;28;20178;-69
2022/06/29 09:43:31;;;;;;;7.23;2.57;;;12.60;99.90;;;;;;5078232;28;20635;-69
2022/06/29 09:46:03;;;;;;;7.30;3.00;;;12.40;99.90;;;;;;5096213;28;20563;-69
2022/06/29 09:48:32;;;;;;;7.00;2.33;;;12.40;99.90;;;;;;5096454;28;20572;-68
2022/06/29 09:51:01;;;;;;;7.67;2.73;;;12.40;99.90;;;;;;5078042;28;20181;-69
2022/06/29 09:53:39;;;;;;;7.13;3.17;;;12.40;99.90;;;;;;5077803;28;20186;-68
2022/06/29 09:56:09;;;;;;;6.80;3.17;;;12.40;99.90;;;;;;5096022;28;20265;-69
2022/06/29 09:58:42;;;;;;;9.67;3.43;;;12.30;99.90;;;;;;5095999;28;20184;-68
2022/06/29 10:03:58;;;;;;;5.50;3.20;;;12.20;99.90;;;;;;5096234;28;20587;-69
2022/06/29 10:06:26;;;;;;;5.27;3.17;;;12.10;99.90;;;;;;5095694;28;20188;-68
2022/06/29 10:08:54;;;;;;;7.37;3.43;;;12.20;99.90;;;;;;5095840;28;20231;-68
2022/06/29 10:14:43;;;;;;;4.97;3.30;;;12.30;99.90;;;;;;5096105;28;20180;-69
2022/06/29 10:17:29;;;;;;;7.80;3.30;;;12.20;99.90;;;;;;5095878;28;20175;-69
2022/06/29 10:20:35;;;;;;;8.40;3.50;;;12.10;99.90;;;;;;5095897;28;20169;-69
2022/06/29 10:23:03;;;;;;;5.57;2.97;;;12.00;99.90;;;;;;5084184;28;20184;-69
2022/06/29 10:25:31;;;;;;;5.70;3.33;;;12.00;99.90;;;;;;5095089;28;20185;-68
2022/06/29 10:28:16;;;;;;;7.50;3.20;;;12.00;99.90;;;;;;5095487;28;20240;-69
2022/06/29 10:30:45;;;;;;;6.60;3.57;;;12.00;99.90;;;;;;5095449;28;20218;-68
2022/06/29 10:33:31;;;;;;;7.43;3.37;;;12.00;99.90;;;;;;5095442;28;20557;-71
2022/06/29 10:36:06;;;;;;;8.80;3.20;;;12.10;99.90;;;;;;5095445;28;20539;-70
2022/06/29 10:38:49;;;;;;;9.43;4.33;;;12.00;99.90;;;;;;5095418;28;20185;-68
2022/06/29 10:44:03;;;;;;;9.27;3.30;;;12.10;99.90;;;;;;5095411;28;20312;-69
2022/06/29 10:46:56;;;;;;;8.20;3.40;;;12.20;99.90;;;;;;5094956;28;20214;-69
2022/06/29 10:49:25;;;;;;;9.17;4.07;;;12.20;99.90;;;;;;5094979;28;20603;-69
2022/06/29 10:51:53;;;;;;;6.90;3.60;;;12.30;99.90;;;;;;5095017;28;20230;-69
2022/06/29 10:54:26;;;;;;;8.73;2.97;;;12.20;99.90;;;;;;5095237;28;20695;-69
2022/06/29 10:56:54;;;;;;;8.87;4.47;;;12.10;99.90;;;;;;5094968;28;20210;-69
2022/06/29 10:59:39;;;;;;;7.50;3.83;;;12.10;99.90;;;;;;5095151;28;20622;-69
2022/06/29 11:02:15;;;;;;;7.67;3.87;;;12.00;99.90;;;;;;5094807;28;20200;-69
2022/06/29 11:04:44;;;;;;;10.27;3.83;;;11.90;99.90;;;;;;5094905;28;20264;-68
2022/06/29 11:12:51;;;;;;;7.13;4.40;;;11.60;99.90;;;;;;5094805;28;20654;-69
2022/06/29 11:15:48;;;;;;;6.30;4.50;;;11.50;99.90;;;;;;5094516;28;20177;-69
2022/06/29 11:18:19;;;;;;;8.30;4.97;;;11.50;99.90;;;;;;5094438;28;20263;-69
2022/06/29 11:20:51;;;;;;;12.50;5.20;;;11.50;99.90;;;;;;5094111;28;20195;-70
2022/06/29 11:23:30;;;;;;;14.27;5.63;;;11.50;99.90;;;;;;5094421;28;20171;-69
2022/06/29 11:25:58;;;;;;;13.27;6.30;;;11.50;99.90;;;;;;5093964;28;20192;-68
2022/06/29 11:28:30;;;;;;;9.23;5.10;;;11.50;99.90;;;;;;5094300;28;20215;-67
2022/06/29 11:31:12;;;;;;;9.30;5.20;;;11.50;99.90;;;;;;5074915;28;20186;-67
2022/06/29 11:33:52;;;;;;;9.77;5.40;;;11.50;99.90;;;;;;5093831;28;20190;-67
2022/06/29 11:36:29;;;;;;;13.77;6.30;;;11.50;99.90;;;;;;5075339;28;20187;-68
2022/06/29 11:39:06;;;;;;;13.67;6.63;;;11.60;99.90;;;;;;5094045;28;20177;-67
2022/06/29 11:44:28;;;;;;;9.80;6.47;;;11.70;99.90;;;;;;5094703;28;20181;-68
2022/06/29 11:46:57;;;;;;;14.20;6.00;;;11.80;99.90;;;;;;5093700;28;20234;-68
2022/06/29 11:49:36;;;;;;;14.40;5.10;;;11.90;99.90;;;;;;5075721;28;20230;-67
2022/06/29 11:52:06;;;;;;;11.30;4.87;;;11.90;99.90;;;;;;5075673;28;20297;-67
2022/06/29 11:54:38;;;;;;;11.17;4.83;;;12.00;99.90;;;;;;5093906;28;20180;-67
2022/06/29 11:57:15;;;;;;;9.17;4.93;;;12.00;99.90;;;;;;5088976;28;20266;-67
2022/06/29 11:59:44;;;;;;;9.10;5.30;;;12.10;99.90;;;;;;5093858;28;20221;-68
2022/06/29 12:02:14;;;;;;;11.80;6.37;;;12.10;99.90;;;;;;5093727;28;20259;-67
2022/06/29 12:04:43;;;;;;;9.83;6.57;;;12.10;99.90;;;;;;5093660;28;20536;-68
2022/06/29 12:07:20;;;;;;;15.70;6.73;;;12.00;99.90;;;;;;5093570;28;20209;-68
2022/06/29 12:09:51;;;;;;;16.30;6.83;;;12.00;99.90;;;;;;5093750;28;20555;-66
2022/06/29 12:12:19;;;;;;;14.03;7.43;;;11.90;99.90;;;;;;5075135;28;20169;-67
2022/06/29 12:14:46;;;;;;;9.90;6.33;;;11.80;99.90;;;;;;5093350;28;20234;-67
2022/06/29 12:17:15;;;;;;;20.27;6.23;;;11.80;99.90;;;;;;5093734;28;20175;-69
2022/06/29 12:19:56;;;;;;;10.00;6.37;;;11.80;99.90;;;;;;5076243;28;20176;-66
2022/06/29 12:22:24;;;;;;;9.67;5.67;;;11.70;99.90;;;;;;5093400;28;20197;-65
2022/06/29 12:24:52;;;;;;;11.37;5.13;;;11.70;99.90;;;;;;5094716;28;20169;-66
2022/06/29 12:27:19;;;;;;;12.17;5.00;;;11.70;99.90;;;;;;5092864;28;20724;-67
2022/06/29 12:29:47;;;;;;;9.33;4.93;;;11.60;99.90;;;;;;5093376;28;20173;-67
2022/06/29 12:32:15;;;;;;;6.80;4.67;;;11.60;99.90;;;;;;5093208;28;20257;-67
2022/06/29 12:34:43;;;;;;;9.13;5.33;;;11.50;99.90;;;;;;5093348;28;20727;-67
2022/06/29 12:37:10;;;;;;;8.60;4.93;;;11.50;99.90;;;;;;5093014;28;20221;-67
2022/06/29 12:39:38;;;;;;;8.27;4.40;;;11.40;99.90;;;;;;5093191;28;20174;-68
2022/06/29 12:42:06;;;;;;;6.97;4.63;;;11.30;99.90;;;;;;5092834;28;20654;-68
2022/06/29 12:44:34;;;;;;;7.77;4.90;;;11.20;99.90;;;;;;5093184;28;20225;-68
2022/06/29 12:47:01;;;;;;;7.67;4.67;;;11.20;99.90;;;;;;5093153;28;20288;-68
2022/06/29 12:49:29;;;;;;;7.63;4.20;;;11.10;99.90;;;;;;5096428;28;20217;-69
2022/06/29 12:51:57;;;;;;;13.63;4.73;;;11.10;99.90;;;;;;5097568;28;20687;-68
2022/06/29 12:54:24;;;;;;;8.17;4.27;;;11.00;99.90;;;;;;5097146;28;20171;-67
2022/06/29 12:56:52;;;;;;;9.27;4.50;;;10.90;99.90;;;;;;5097038;28;20222;-67
2022/06/29 12:59:21;;;;;;;8.37;4.10;;;10.90;99.90;;;;;;5096989;28;20187;-68
2022/06/29 13:01:50;;;;;;;9.80;4.40;;;10.80;99.90;;;;;;5096937;28;20179;-68
2022/06/29 13:04:19;;;;;;;10.23;5.10;;;10.70;99.90;;;;;;5097103;28;20629;-68
2022/06/29 13:06:47;;;;;;;10.97;4.50;;;10.60;99.90;;;;;;5096100;28;20590;-67
2022/06/29 13:09:15;;;;;;;7.13;4.23;;;10.60;99.90;;;;;;5093010;28;20266;-66
2022/06/29 13:11:43;;;;;;;8.10;4.20;;;10.50;99.90;;;;;;5092186;28;20175;-66
2022/06/29 13:14:10;;;;;;;7.40;4.27;;;10.50;99.90;;;;;;5093986;28;20175;-66
2022/06/29 13:16:42;;;;;;;7.00;3.80;;;10.40;99.90;;;;;;5096735;28;20167;-66
2022/06/29 13:19:10;;;;;;;6.70;4.80;;;10.40;99.90;;;;;;5099684;28;20171;-67
2022/06/29 13:21:38;;;;;;;17.40;9.83;;;10.30;99.90;;;;;;5087810;28;20666;-67
2022/06/29 13:24:07;;;;;;;27.13;16.87;;;10.40;99.90;;;;;;5109610;28;20191;-67